Time;durP1;ratioP1;P1;durP2;ratioP2;P2;SDS_P1;SDS_P2;PMS_P1;PMS_P2;Temp;Humidity;BMP_temperature;BMP_pressure;BME280_temperature;BME280_humidity;BME280_pressure;Samples;Min_cycle;Max_cycle;Signal;HPM_P1;HPM_P2
2022/03/19 00:02:31;;;;;;;54.57;29.67;;;;;;;6.73;49.30;102779.66;5358693;32;34731;-84
2022/03/19 00:05:34;;;;;;;58.87;32.20;;;;;;;7.30;47.50;102766.50;5351042;32;35061;-71
2022/03/19 00:08:36;;;;;;;61.63;30.93;;;;;;;7.24;47.90;102765.56;5347576;32;36202;-83
2022/03/19 00:11:40;;;;;;;53.93;29.20;;;;;;;7.41;47.66;102771.00;5365306;32;35448;-78
2022/03/19 00:14:43;;;;;;;58.75;30.30;;;;;;;7.14;48.23;102763.66;5362806;32;34265;-82
2022/03/19 00:17:45;;;;;;;56.00;30.33;;;;;;;6.67;49.56;102766.50;5347498;32;34840;-70
2022/03/19 00:20:47;;;;;;;52.53;29.77;;;;;;;6.27;51.13;102770.22;5376665;32;34724;-70
2022/03/19 00:23:50;;;;;;;56.07;30.03;;;;;;;6.66;49.91;102769.97;5335438;32;33913;-84
2022/03/19 00:26:52;;;;;;;55.30;31.10;;;;;;;6.38;50.55;102766.06;5361968;32;35156;-84
2022/03/19 00:29:55;;;;;;;59.93;31.40;;;;;;;6.38;50.71;102753.88;5359940;32;34866;-71
2022/03/19 00:32:57;;;;;;;54.83;30.03;;;;;;;6.90;49.19;102748.56;5351812;32;36643;-82
2022/03/19 00:35:59;;;;;;;57.20;30.70;;;;;;;6.73;49.79;102750.91;5369954;32;34492;-84
2022/03/19 00:39:01;;;;;;;55.73;29.73;;;;;;;7.03;48.95;102750.47;5354049;32;34926;-83
2022/03/19 00:42:04;;;;;;;48.27;28.43;;;;;;;8.27;45.38;102741.28;5366700;32;34303;-83
2022/03/19 00:45:07;;;;;;;51.97;29.43;;;;;;;8.38;44.88;102737.06;5338502;32;35644;-84
2022/03/19 00:48:09;;;;;;;52.28;29.30;;;;;;;7.03;48.48;102743.50;5375785;32;34173;-78
2022/03/19 00:51:12;;;;;;;53.27;29.10;;;;;;;6.32;50.48;102742.47;5353672;32;34783;-79
2022/03/19 00:54:15;;;;;;;52.20;28.90;;;;;;;6.68;49.72;102743.00;5351029;32;34987;-69
2022/03/19 00:57:17;;;;;;;50.67;28.77;;;;;;;6.56;50.57;102739.31;5367472;32;33785;-71
2022/03/19 01:00:24;;;;;;;51.47;28.37;;;;;;;7.07;48.80;102737.44;5363584;32;34494;-85
2022/03/19 01:03:26;;;;;;;52.13;29.30;;;;;;;7.51;47.33;102736.22;5365490;32;32927;-84
2022/03/19 01:06:29;;;;;;;57.20;29.10;;;;;;;7.49;47.59;102724.84;5343546;32;44171;-70
2022/03/19 01:09:31;;;;;;;52.23;28.93;;;;;;;6.10;51.43;102736.00;5346351;32;36713;-85
2022/03/19 01:12:33;;;;;;;53.33;29.43;;;;;;;6.05;51.80;102725.47;5375517;32;34503;-78
2022/03/19 01:15:37;;;;;;;56.17;30.87;;;;;;;5.81;52.52;102727.63;5346692;32;34746;-70
2022/03/19 01:18:39;;;;;;;56.17;29.77;;;;;;;6.31;51.67;102720.69;5367729;32;33877;-83
2022/03/19 01:21:41;;;;;;;48.57;27.67;;;;;;;6.59;50.21;102719.38;5355229;32;34534;-83
2022/03/19 01:24:44;;;;;;;58.47;30.10;;;;;;;6.27;51.64;102724.09;5380516;32;34724;-77
2022/03/19 01:27:47;;;;;;;57.43;29.33;;;;;;;5.92;51.86;102726.09;5361966;32;35178;-70
2022/03/19 01:30:50;;;;;;;55.80;29.30;;;;;;;5.89;52.36;102726.91;5366643;32;34642;-71
2022/03/19 01:33:53;;;;;;;66.27;30.77;;;;;;;5.94;52.29;102724.44;5374688;32;35769;-77
2022/03/19 01:36:55;;;;;;;60.17;31.20;;;;;;;6.33;50.92;102713.75;5350524;32;36579;-85
2022/03/19 01:39:58;;;;;;;57.17;31.57;;;;;;;5.95;52.17;102706.16;5353951;32;43182;-83
2022/03/19 01:43:00;;;;;;;61.53;31.70;;;;;;;5.95;52.16;102700.06;5347384;32;34825;-70
2022/03/19 01:46:03;;;;;;;55.00;30.53;;;;;;;6.88;49.33;102692.72;5360113;32;34788;-70
2022/03/19 01:49:05;;;;;;;54.23;30.13;;;;;;;6.99;49.06;102694.63;5358656;32;34427;-69
2022/03/19 01:52:07;;;;;;;62.97;29.93;;;;;;;7.54;47.56;102691.78;5349594;32;34449;-70
2022/03/19 01:55:11;;;;;;;55.73;30.23;;;;;;;7.08;49.13;102696.47;5363366;32;34311;-77
2022/03/19 01:58:13;;;;;;;;;;;;;;;6.82;49.52;102688.31;5342132;32;33889;-70
2022/03/19 02:01:15;;;;;;;57.10;29.90;;;;;;;6.22;51.57;102686.59;5384426;32;34483;-70
2022/03/19 02:04:18;;;;;;;51.73;29.83;;;;;;;5.63;53.31;102689.91;5354371;32;34851;-71
2022/03/19 02:07:20;;;;;;;52.73;30.53;;;;;;;5.57;54.00;102689.81;5363073;32;34120;-70
2022/03/19 02:10:23;;;;;;;60.23;31.37;;;;;;;5.59;54.08;102688.09;5352727;32;34500;-70
2022/03/19 02:13:26;;;;;;;56.53;32.03;;;;;;;5.56;54.03;102688.06;5360017;32;34607;-83
2022/03/19 02:16:29;;;;;;;58.40;31.47;;;;;;;5.74;53.65;102684.03;5375237;32;44667;-83
2022/03/19 02:19:32;;;;;;;60.55;32.03;;;;;;;6.06;52.56;102676.78;5363621;32;34249;-84
2022/03/19 02:22:35;;;;;;;60.00;32.38;;;;;;;5.82;53.09;102679.81;5369527;32;37718;-78
2022/03/19 02:25:37;;;;;;;57.43;30.37;;;;;;;6.08;52.74;102678.53;5366971;32;34240;-79
2022/03/19 02:28:39;;;;;;;59.30;31.40;;;;;;;6.80;50.38;102674.34;5379551;32;34031;-71
2022/03/19 02:31:44;;;;;;;61.10;31.43;;;;;;;6.19;52.01;102673.50;5357508;32;33335;-84
2022/03/19 02:34:47;;;;;;;55.70;32.07;;;;;;;6.11;52.41;102669.84;5360430;32;34132;-69
2022/03/19 02:37:50;;;;;;;63.40;32.83;;;;;;;6.28;51.70;102667.53;5381230;32;34427;-77
2022/03/19 02:40:52;;;;;;;64.57;32.42;;;;;;;5.79;53.06;102662.34;5353297;32;35657;-77
2022/03/19 02:43:54;;;;;;;61.83;32.33;;;;;;;6.24;51.93;102666.59;5353143;32;34758;-83
2022/03/19 02:46:59;;;;;;;61.03;32.87;;;;;;;5.74;53.43;102665.75;5351461;32;44284;-72
2022/03/19 02:50:01;;;;;;;54.30;30.80;;;;;;;6.24;52.25;102659.63;5361268;32;35170;-84
2022/03/19 02:53:06;;;;;;;58.10;31.00;;;;;;;6.25;51.79;102655.31;5359458;32;35397;-85
2022/03/19 02:56:08;;;;;;;55.27;32.07;;;;;;;6.41;51.13;102648.56;5352239;32;35301;-78
2022/03/19 02:59:17;;;;;;;59.90;30.33;;;;;;;5.97;52.24;102652.25;5370232;32;34377;-71
2022/03/19 03:02:20;;;;;;;65.20;32.27;;;;;;;5.95;52.71;102659.19;5345457;32;34716;-78
2022/03/19 03:05:23;;;;;;;56.70;31.12;;;;;;;6.02;52.45;102649.72;5367274;32;35427;-71
2022/03/19 03:08:25;;;;;;;63.87;32.63;;;;;;;6.41;49.49;102659.88;5353198;32;34662;-69
2022/03/19 03:11:27;;;;;;;61.00;32.40;;;;;;;5.76;52.84;102666.66;5359627;32;44580;-83
2022/03/19 03:14:29;;;;;;;58.37;31.33;;;;;;;5.50;53.62;102667.06;5365223;32;37248;-70
2022/03/19 03:17:33;;;;;;;54.07;32.07;;;;;;;5.56;53.73;102663.69;5345551;32;34891;-71
2022/03/19 03:20:35;;;;;;;59.05;32.13;;;;;;;5.46;53.85;102660.03;5375582;32;34937;-70
2022/03/19 03:23:37;;;;;;;61.77;32.27;;;;;;;6.42;51.26;102659.03;5360092;32;35416;-79
2022/03/19 03:26:40;;;;;;;70.23;34.37;;;;;;;6.15;50.95;102663.84;5368216;32;34728;-84
2022/03/19 03:29:42;;;;;;;65.03;33.25;;;;;;;6.18;51.49;102658.66;5361923;32;34120;-69
2022/03/19 03:32:45;;;;;;;61.17;31.80;;;;;;;6.77;49.86;102661.25;5356526;32;34854;-70
2022/03/19 03:35:47;;;;;;;72.57;34.00;;;;;;;7.06;48.79;102646.78;5369597;32;34615;-82
2022/03/19 03:38:49;;;;;;;61.37;31.30;;;;;;;6.88;49.01;102661.34;5353701;32;34155;-84
2022/03/19 03:41:52;;;;;;;56.57;30.93;;;;;;;6.15;50.93;102658.62;5364738;32;34424;-70
2022/03/19 03:44:58;;;;;;;63.07;31.87;;;;;;;6.11;50.99;102644.63;5339885;32;37665;-83
2022/03/19 03:48:00;;;;;;;66.03;34.53;;;;;;;6.82;49.50;102640.37;5368093;32;44636;-70
2022/03/19 03:51:04;;;;;;;69.67;31.67;;;;;;;6.99;48.83;102639.72;5354105;32;35547;-71
2022/03/19 03:54:08;;;;;;;68.43;34.33;;;;;;;6.34;50.02;102637.16;5355192;32;34991;-70
2022/03/19 03:57:10;;;;;;;61.53;32.20;;;;;;;6.36;50.23;102645.00;5356964;32;34795;-84
2022/03/19 04:00:12;;;;;;;63.47;32.80;;;;;;;6.58;49.36;102638.34;5349734;32;34076;-81
2022/03/19 04:03:15;;;;;;;61.77;32.27;;;;;;;5.73;51.54;102643.97;5359003;32;34658;-84
2022/03/19 04:06:17;;;;;;;61.43;33.70;;;;;;;6.10;51.06;102644.59;5352756;32;34220;-71
2022/03/19 04:09:20;;;;;;;57.07;32.17;;;;;;;6.38;49.75;102638.97;5363796;32;34659;-84
2022/03/19 04:12:23;;;;;;;66.82;34.03;;;;;;;7.63;46.36;102639.50;5329707;32;35091;-85
2022/03/19 04:15:25;;;;;;;62.23;33.03;;;;;;;6.68;47.99;102642.81;5347067;32;35588;-71
2022/03/19 04:18:27;;;;;;;59.47;31.87;;;;;;;6.05;50.18;102641.03;5362603;32;43991;-84
2022/03/19 04:21:30;;;;;;;57.93;33.00;;;;;;;5.46;51.85;102646.13;5365047;32;34207;-84
2022/03/19 04:24:32;;;;;;;64.03;30.43;;;;;;;5.42;52.02;102642.59;5382091;32;34985;-84
2022/03/19 04:27:34;;;;;;;58.10;30.40;;;;;;;5.30;52.02;102647.59;5366643;32;35228;-79
2022/03/19 04:30:36;;;;;;;60.30;32.30;;;;;;;5.44;51.87;102646.97;5367889;32;33030;-78
2022/03/19 04:33:38;;;;;;;66.20;31.23;;;;;;;5.21;52.87;102650.87;5340253;32;35081;-71
2022/03/19 04:36:41;;;;;;;58.47;31.47;;;;;;;5.57;51.47;102644.59;5356820;32;34835;-73
2022/03/19 04:39:43;;;;;;;59.33;30.90;;;;;;;5.76;51.00;102641.44;5380929;32;34222;-72
2022/03/19 04:42:45;;;;;;;63.07;31.57;;;;;;;5.75;51.05;102644.03;5325897;32;34476;-69
2022/03/19 04:45:48;;;;;;;51.60;28.70;;;;;;;5.76;50.88;102637.94;5358482;32;34155;-83
2022/03/19 04:48:52;;;;;;;51.30;24.35;;;;;;;6.51;48.12;102635.66;5337543;32;35158;-70
2022/03/19 04:51:55;;;;;;;41.77;23.33;;;;;;;6.98;45.75;102631.88;5374868;32;35683;-85
2022/03/19 04:55:00;;;;;;;44.80;22.20;;;;;;;6.82;45.25;102648.22;5368821;32;37637;-70
2022/03/19 04:58:03;;;;;;;41.20;20.40;;;;;;;7.87;42.27;102628.38;5339242;32;35060;-70
2022/03/19 05:01:05;;;;;;;39.25;20.60;;;;;;;7.05;43.75;102649.38;5367650;32;35664;-78
2022/03/19 05:04:08;;;;;;;37.83;21.10;;;;;;;6.94;43.94;102651.84;5366044;32;35007;-72
2022/03/19 05:07:10;;;;;;;37.63;21.07;;;;;;;6.01;46.04;102654.94;5365710;32;35185;-79
2022/03/19 05:13:33;;;;;;;40.50;22.10;;;;;;;7.40;42.61;102646.25;5343065;32;43148;-70
2022/03/19 05:16:36;;;;;;;39.40;21.90;;;;;;;7.34;43.61;102644.44;5365022;32;34567;-70
2022/03/19 05:19:38;;;;;;;39.93;21.17;;;;;;;7.70;42.31;102645.66;5352660;32;34897;-78
2022/03/19 05:22:40;;;;;;;42.73;22.40;;;;;;;7.06;43.51;102649.38;5361884;32;34240;-70
2022/03/19 05:25:42;;;;;;;42.47;21.67;;;;;;;7.01;44.58;102653.69;5362506;32;35226;-71
2022/03/19 05:28:44;;;;;;;46.10;23.00;;;;;;;6.92;44.70;102658.81;5376161;32;36459;-83
2022/03/19 05:32:07;;;;;;;44.40;25.70;;;;;;;6.74;45.39;102658.56;5374308;32;44874;-78
2022/03/19 05:35:10;;;;;;;42.25;22.60;;;;;;;6.59;47.20;102655.78;5339667;32;33196;-70
2022/03/19 05:38:13;;;;;;;35.53;19.07;;;;;;;6.73;46.40;102656.81;5379226;32;35346;-71
2022/03/19 05:41:16;;;;;;;36.10;18.83;;;;;;;7.59;42.83;102653.41;5364992;32;34193;-69
2022/03/19 05:44:18;;;;;;;37.33;19.50;;;;;;;6.88;43.61;102661.34;5345908;32;33670;-84
2022/03/19 05:47:21;;;;;;;34.17;16.93;;;;;;;8.04;40.65;102647.69;5349715;32;35524;-70
2022/03/19 05:50:23;;;;;;;31.03;17.20;;;;;;;8.42;38.62;102654.94;5370738;32;34845;-83
2022/03/19 05:53:25;;;;;;;36.33;18.37;;;;;;;8.49;37.98;102646.25;5346978;32;34710;-85
2022/03/19 05:56:28;;;;;;;36.17;18.83;;;;;;;8.52;38.00;102646.28;5367693;32;42888;-70
2022/03/19 05:59:31;;;;;;;32.83;17.23;;;;;;;8.51;37.87;102646.28;5380353;32;34639;-70
2022/03/19 06:02:38;;;;;;;34.17;18.07;;;;;;;8.71;37.42;102649.88;5367300;32;35250;-83
2022/03/19 06:05:40;;;;;;;34.37;18.40;;;;;;;8.19;38.46;102653.91;5368927;32;37111;-70
2022/03/19 06:08:42;;;;;;;37.73;18.27;;;;;;;8.31;38.45;102652.25;5361818;32;34573;-71
2022/03/19 06:11:45;;;;;;;37.60;18.73;;;;;;;9.06;36.51;102649.12;5368234;32;34153;-78
2022/03/19 06:14:53;;;;;;;36.42;18.73;;;;;;;9.73;35.48;102654.53;5349686;32;34798;-70
2022/03/19 06:17:55;;;;;;;38.00;18.17;;;;;;;9.90;34.95;102654.50;5357428;32;35343;-85
2022/03/19 06:20:57;;;;;;;35.30;18.10;;;;;;;8.19;37.82;102667.88;5378034;32;43569;-70
2022/03/19 06:23:59;;;;;;;34.93;18.37;;;;;;;8.02;38.14;102654.66;5364297;32;35123;-70
2022/03/19 06:27:03;;;;;;;35.53;19.53;;;;;;;8.70;37.46;102663.00;5379116;32;33861;-82
2022/03/19 06:30:06;;;;;;;35.10;18.20;;;;;;;7.83;38.94;102658.88;5363694;32;34365;-78
2022/03/19 06:33:09;;;;;;;32.80;18.23;;;;;;;7.40;40.38;102670.66;5364791;32;34046;-77
2022/03/19 06:39:33;;;;;;;38.17;19.77;;;;;;;8.52;38.13;102669.00;5355609;32;46370;-84
2022/03/19 06:42:35;;;;;;;36.43;18.93;;;;;;;7.76;39.03;102671.91;5366446;32;36851;-70
2022/03/19 06:45:38;;;;;;;37.00;19.40;;;;;;;8.50;38.18;102662.84;5353318;32;34631;-85
2022/03/19 06:48:41;;;;;;;37.28;19.55;;;;;;;8.54;38.17;102660.28;5370581;32;34162;-70
2022/03/19 06:51:44;;;;;;;37.40;19.90;;;;;;;8.63;38.10;102670.81;5365226;32;34498;-79
2022/03/19 06:54:47;;;;;;;35.20;19.43;;;;;;;8.93;37.74;102671.81;5350587;32;35145;-70
2022/03/19 06:57:49;;;;;;;35.27;19.43;;;;;;;8.95;37.43;102667.44;5380544;32;34969;-70
2022/03/19 07:00:52;;;;;;;33.47;19.03;;;;;;;9.44;36.51;102668.47;5353285;32;34309;-84
2022/03/19 07:03:54;;;;;;;39.88;19.90;;;;;;;7.72;39.84;102670.09;5371029;32;34348;-85
2022/03/19 07:06:57;;;;;;;34.87;19.03;;;;;;;8.64;37.80;102664.72;5355526;32;36216;-72
2022/03/19 07:10:05;;;;;;;34.63;18.80;;;;;;;9.14;37.44;102656.13;5361786;32;34871;-84
2022/03/19 07:13:07;;;;;;;36.08;20.67;;;;;;;8.87;38.07;102656.94;5367726;32;34963;-69
2022/03/19 07:16:09;;;;;;;35.13;19.30;;;;;;;8.94;37.55;102665.69;5351648;32;34583;-85
2022/03/19 07:19:12;;;;;;;38.43;20.07;;;;;;;9.03;37.51;102676.25;5371003;32;34160;-85
2022/03/19 07:22:14;;;;;;;35.70;19.67;;;;;;;8.95;37.56;102677.94;5352330;32;33109;-71
2022/03/19 07:25:18;;;;;;;31.10;18.20;;;;;;;8.37;39.12;102678.53;5365856;32;34212;-86
2022/03/19 07:28:20;;;;;;;33.47;17.77;;;;;;;9.01;37.46;102672.72;5342554;32;34937;-86
2022/03/19 07:31:23;;;;;;;36.67;17.97;;;;;;;9.26;36.60;102673.66;5354536;32;35704;-78
2022/03/19 07:34:25;;;;;;;33.85;19.17;;;;;;;9.41;36.51;102678.97;5366421;32;35872;-86
2022/03/19 07:37:28;;;;;;;34.90;19.20;;;;;;;9.83;35.61;102671.13;5351033;32;44649;-87
2022/03/19 07:43:51;;;;;;;32.90;18.27;;;;;;;9.61;35.96;102686.88;5328127;32;34266;-86
2022/03/19 07:46:53;;;;;;;34.87;18.50;;;;;;;9.65;36.11;102675.50;5360796;32;35364;-71
2022/03/19 07:49:56;;;;;;;29.97;18.13;;;;;;;9.81;35.88;102679.03;5349509;32;35214;-84
2022/03/19 07:52:59;;;;;;;30.40;17.87;;;;;;;8.93;37.60;102685.81;5366125;32;46036;-70
2022/03/19 07:56:01;;;;;;;35.23;19.13;;;;;;;8.36;38.92;102691.59;5380067;32;35329;-86
2022/03/19 07:59:03;;;;;;;39.50;20.40;;;;;;;8.73;38.51;102682.22;5353413;32;34374;-85
2022/03/19 08:02:06;;;;;;;34.30;20.37;;;;;;;8.05;40.30;102691.37;5370936;32;34225;-69
2022/03/19 08:05:09;;;;;;;32.47;18.73;;;;;;;8.26;39.46;102697.63;5354660;32;35443;-71
2022/03/19 08:08:12;;;;;;;39.25;21.65;;;;;;;9.91;36.43;102693.91;5360297;32;35133;-70
2022/03/19 08:11:15;;;;;;;40.40;20.80;;;;;;;8.87;38.83;102696.25;5364956;32;34505;-71
2022/03/19 08:14:18;;;;;;;32.30;19.20;;;;;;;8.08;39.83;102696.62;5361744;32;34103;-84
2022/03/19 08:17:20;;;;;;;33.42;19.40;;;;;;;8.34;39.33;102699.44;5378628;32;36726;-71
2022/03/19 08:20:23;;;;;;;32.57;19.70;;;;;;;8.06;39.84;102695.72;5360102;32;34024;-70
2022/03/19 08:23:26;;;;;;;37.33;18.98;;;;;;;8.20;39.32;102700.19;5379575;32;35010;-86
2022/03/19 08:26:28;;;;;;;36.67;19.03;;;;;;;9.21;37.29;102686.81;5358513;32;44761;-70
2022/03/19 08:29:30;;;;;;;39.13;18.77;;;;;;;10.17;35.35;102693.88;5364583;32;34885;-71
2022/03/19 08:32:32;;;;;;;37.77;19.73;;;;;;;9.18;36.86;102691.16;5379536;32;34871;-79
2022/03/19 08:35:35;;;;;;;31.43;19.30;;;;;;;10.81;34.27;102693.78;5343188;32;35439;-71
2022/03/19 08:41:58;;;;;;;30.63;18.03;;;;;;;10.15;34.82;102697.41;5345368;32;44355;-85
2022/03/19 08:45:00;;;;;;;30.73;17.85;;;;;;;10.84;33.93;102693.78;5343050;32;35541;-71
2022/03/19 08:48:03;;;;;;;29.05;17.95;;;;;;;10.91;33.11;102688.50;5369789;32;35588;-84
2022/03/19 08:54:26;;;;;;;29.63;17.40;;;;;;;12.41;30.54;102683.94;5343806;32;35629;-86
2022/03/19 08:57:29;;;;;;;28.27;17.27;;;;;;;12.13;30.67;102687.75;5360498;32;45130;-84
2022/03/19 09:00:31;;;;;;;29.97;17.47;;;;;;;12.80;30.00;102678.25;5355488;32;34551;-86
2022/03/19 09:03:34;;;;;;;30.97;17.30;;;;;;;12.48;30.43;102671.56;5349338;32;34995;-86
2022/03/19 09:06:36;;;;;;;27.13;16.13;;;;;;;11.65;31.68;102684.56;5347483;32;35686;-86
2022/03/19 09:09:40;;;;;;;30.95;17.48;;;;;;;12.18;30.98;102678.03;5366390;32;34972;-78
2022/03/19 09:13:02;;;;;;;29.80;15.25;;;;;;;11.61;31.08;102677.59;5343436;32;46716;-86
2022/03/19 09:16:06;;;;;;;27.37;15.80;;;;;;;11.91;31.26;102684.41;5366341;32;36637;-85
2022/03/19 09:19:08;;;;;;;24.27;15.55;;;;;;;12.15;30.68;102681.56;5360561;32;34256;-86
2022/03/19 09:22:10;;;;;;;28.90;15.30;;;;;;;12.05;31.03;102674.66;5365158;32;33903;-70
2022/03/19 09:25:13;;;;;;;27.03;16.63;;;;;;;11.99;30.74;102668.56;5363445;32;34498;-70
2022/03/19 09:28:15;;;;;;;28.27;16.20;;;;;;;11.44;31.98;102685.59;5365402;32;35241;-71
2022/03/19 09:31:18;;;;;;;28.93;15.80;;;;;;;11.44;32.00;102684.72;5381413;32;36058;-84
2022/03/19 09:34:21;;;;;;;27.45;14.82;;;;;;;11.84;31.32;102670.41;5353700;32;35129;-85
2022/03/19 09:37:23;;;;;;;27.03;15.50;;;;;;;12.19;30.66;102675.38;5379963;32;34657;-71
2022/03/19 09:40:25;;;;;;;30.50;18.13;;;;;;;12.45;30.28;102672.50;5352789;32;34439;-85
2022/03/19 09:43:31;;;;;;;33.30;17.37;;;;;;;11.66;31.71;102675.81;5317497;32;44448;-87
2022/03/19 09:46:33;;;;;;;28.97;17.90;;;;;;;11.16;32.73;102684.03;5359554;32;35534;-85
2022/03/19 09:49:36;;;;;;;28.63;16.20;;;;;;;12.35;31.03;102665.56;5361263;32;35505;-70
2022/03/19 09:52:41;;;;;;;28.53;16.90;;;;;;;13.08;29.70;102666.47;5381446;32;34534;-87
2022/03/19 09:55:44;;;;;;;28.67;16.53;;;;;;;14.40;27.53;102659.94;5347798;32;34718;-86
2022/03/19 09:58:48;;;;;;;26.50;15.98;;;;;;;14.86;27.13;102661.72;5351712;32;34681;-71
2022/03/19 10:01:51;;;;;;;24.87;15.60;;;;;;;13.57;28.64;102664.91;5342260;32;35728;-83
2022/03/19 10:04:56;;;;;;;24.70;14.47;;;;;;;14.59;26.97;102657.84;5368051;32;34371;-86
2022/03/19 10:11:19;;;;;;;25.07;14.83;;;;;;;17.06;23.25;102642.84;5358495;32;35121;-71
2022/03/19 10:14:23;;;;;;;24.07;15.40;;;;;;;18.08;22.40;102636.00;5366614;32;34901;-85
2022/03/19 10:17:33;;;;;;;23.20;15.67;;;;;;;18.53;21.71;102641.47;5350385;32;33983;-86
2022/03/19 10:20:36;;;;;;;21.87;14.93;;;;;;;17.33;22.40;102644.66;5361028;32;44914;-71
2022/03/19 10:23:42;;;;;;;23.93;16.07;;;;;;;17.55;22.88;102634.19;5375736;32;35452;-71
2022/03/19 10:26:48;;;;;;;28.83;17.02;;;;;;;19.30;20.74;102641.22;5370413;32;35375;-87
2022/03/19 10:30:19;;;;;;;23.80;16.40;;;;;;;19.02;20.86;102634.31;5369196;32;35605;-71
2022/03/19 10:33:33;;;;;;;24.70;16.62;;;;;;;17.43;21.89;102645.22;5346433;32;34998;-81
2022/03/19 10:36:43;;;;;;;;;;;;;;;15.44;24.35;102647.16;5372646;32;44863;-70
2022/03/19 10:39:48;;;;;;;22.80;15.30;;;;;;;16.18;21.53;102641.81;5372103;32;36854;-88
2022/03/19 10:42:57;;;;;;;22.27;14.67;;;;;;;13.35;25.81;102662.59;5340759;32;34532;-89
2022/03/19 10:46:02;;;;;;;27.80;14.97;;;;;;;15.16;24.01;102645.16;5369834;32;44684;-71
2022/03/19 10:49:11;;;;;;;21.27;12.27;;;;;;;14.35;24.91;102640.63;5356730;32;35567;-89
2022/03/19 10:52:16;;;;;;;22.57;12.50;;;;;;;15.97;20.94;102645.00;5380528;32;34046;-85
2022/03/19 10:55:19;;;;;;;21.73;13.67;;;;;;;15.58;22.29;102637.09;5352882;32;281245;-71
2022/03/19 10:58:23;;;;;;;22.60;12.70;;;;;;;15.37;21.95;102635.84;5349354;32;33994;-71
2022/03/19 11:01:41;;;;;;;20.87;12.07;;;;;;;14.15;23.10;102626.91;5363312;32;35219;-71
2022/03/19 11:04:46;;;;;;;21.67;13.10;;;;;;;16.47;20.34;102622.41;5353966;32;36236;-87
2022/03/19 11:07:49;;;;;;;23.73;14.17;;;;;;;12.24;25.78;102633.16;5376659;32;34521;-70
2022/03/19 11:10:56;;;;;;;24.52;14.90;;;;;;;14.60;23.16;102615.47;5354248;32;34937;-71
2022/03/19 11:14:01;;;;;;;22.83;13.83;;;;;;;13.19;24.90;102622.28;5347569;32;45041;-87
2022/03/19 11:17:24;;;;;;;21.90;13.43;;;;;;;13.61;23.65;102614.66;5365564;32;35631;-88
2022/03/19 11:20:27;;;;;;;20.70;13.10;;;;;;;15.33;21.33;102596.22;5352794;32;34984;-85
2022/03/19 11:23:38;;;;;;;19.03;11.67;;;;;;;16.17;20.05;102591.44;5381724;32;33139;-88
2022/03/19 11:26:41;;;;;;;19.13;11.80;;;;;;;15.78;18.55;102580.09;5349758;32;34780;-88
2022/03/19 11:29:43;;;;;;;19.35;12.00;;;;;;;15.67;19.85;102575.09;5369829;32;34702;-87
2022/03/19 11:33:09;;;;;;;22.35;13.65;;;;;;;17.16;18.81;102567.25;5357532;32;35611;-71
2022/03/19 11:36:11;;;;;;;23.23;13.93;;;;;;;15.60;20.72;102566.38;5352779;32;34488;-88
2022/03/19 11:39:13;;;;;;;21.30;13.32;;;;;;;15.88;20.66;102557.75;5355334;32;34508;-86
2022/03/19 11:42:16;;;;;;;20.55;12.77;;;;;;;17.45;19.06;102561.00;5356720;32;34259;-72
2022/03/19 11:45:18;;;;;;;20.05;12.63;;;;;;;20.12;16.30;102551.50;5333619;32;35337;-71
2022/03/19 11:48:36;;;;;;;21.17;12.87;;;;;;;17.18;17.91;102564.53;5368840;32;34570;-71
2022/03/19 11:51:38;;;;;;;21.13;12.47;;;;;;;18.58;17.50;102550.75;5359773;32;34930;-79
2022/03/19 11:55:06;;;;;;;20.98;13.00;;;;;;;18.03;18.21;102542.16;5374091;32;34696;-73
2022/03/19 11:58:09;;;;;;;18.67;12.33;;;;;;;15.55;20.99;102536.47;5361864;32;34619;-72
2022/03/19 12:01:11;;;;;;;18.45;12.15;;;;;;;17.03;19.54;102532.25;5361935;32;35296;-71
2022/03/19 12:04:16;;;;;;;20.20;13.57;;;;;;;18.05;18.44;102521.69;5362413;32;34769;-70
2022/03/19 12:07:39;;;;;;;20.00;12.27;;;;;;;19.07;17.50;102527.53;5364703;32;35617;-71
2022/03/19 12:10:54;;;;;;;17.67;11.33;;;;;;;19.85;16.35;102516.25;5365709;32;34496;-72
2022/03/19 12:13:57;;;;;;;18.47;11.83;;;;;;;19.72;16.22;102523.94;5350530;32;44961;-72
2022/03/19 12:17:20;;;;;;;18.73;12.32;;;;;;;19.82;15.36;102513.69;5370267;32;45032;-71
2022/03/19 12:20:23;;;;;;;21.40;12.63;;;;;;;18.28;17.12;102520.81;5369592;32;36485;-88
2022/03/19 12:23:29;;;;;;;19.53;12.13;;;;;;;17.41;18.27;102516.81;5353495;32;35340;-71
2022/03/19 12:26:49;;;;;;;20.87;13.10;;;;;;;17.30;18.60;102517.19;5379807;32;44645;-71
2022/03/19 12:29:51;;;;;;;19.17;12.27;;;;;;;18.03;17.39;102527.09;5359512;32;35090;-86
2022/03/19 12:32:54;;;;;;;20.85;11.90;;;;;;;19.80;16.11;102503.09;5369647;32;34648;-79
2022/03/19 12:35:58;;;;;;;20.90;11.67;;;;;;;19.60;15.63;102505.78;5362578;32;35909;-86
2022/03/19 12:39:03;;;;;;;21.27;11.60;;;;;;;20.69;14.86;102504.37;5337558;32;33745;-71
2022/03/19 12:42:06;;;;;;;18.10;11.27;;;;;;;17.91;17.05;102524.00;5382011;32;36856;-70
2022/03/19 12:45:08;;;;;;;17.35;10.77;;;;;;;18.77;16.39;102509.19;5335022;32;34422;-80
2022/03/19 12:48:12;;;;;;;17.67;11.18;;;;;;;20.18;15.16;102496.03;5371110;32;34727;-88
2022/03/19 12:51:25;;;;;;;17.27;10.60;;;;;;;19.19;15.87;102495.03;5359448;32;35041;-87
2022/03/19 12:54:30;;;;;;;16.87;11.33;;;;;;;20.43;14.75;102506.44;5364171;32;44528;-71
2022/03/19 12:57:35;;;;;;;19.10;10.90;;;;;;;21.01;14.06;102497.47;5378118;32;35199;-88
2022/03/19 13:00:37;;;;;;;25.13;11.13;;;;;;;20.17;14.64;102506.78;5354224;32;35318;-78
2022/03/19 13:03:41;;;;;;;;;;;;;;;19.28;15.22;102494.66;5372056;32;34718;-72
2022/03/19 13:06:43;;;;;;;16.65;9.93;;;;;;;17.69;16.65;102506.09;5360800;32;37477;-87
2022/03/19 13:09:46;;;;;;;18.30;11.40;;;;;;;16.81;17.41;102501.09;5381905;32;34669;-72
2022/03/19 13:12:51;;;;;;;15.97;9.70;;;;;;;16.87;17.39;102500.87;5360425;32;34204;-88
2022/03/19 13:15:54;;;;;;;16.63;9.60;;;;;;;18.25;16.05;102495.22;5360644;32;34587;-89
2022/03/19 13:19:00;;;;;;;17.27;10.63;;;;;;;17.39;16.51;102502.72;5350748;32;34342;-70
2022/03/19 13:22:03;;;;;;;16.83;10.17;;;;;;;20.41;13.93;102494.94;5361883;32;47174;-72
2022/03/19 13:25:07;;;;;;;16.50;9.98;;;;;;;20.86;13.49;102492.84;5373548;32;34693;-71
2022/03/19 13:28:10;;;;;;;15.80;9.77;;;;;;;19.71;13.88;102495.53;5353540;32;34074;-80
2022/03/19 13:31:12;;;;;;;16.62;9.70;;;;;;;21.32;12.59;102495.00;5379294;32;34622;-80
2022/03/19 13:34:19;;;;;;;15.77;10.18;;;;;;;20.76;13.18;102490.63;5366140;32;34710;-88
2022/03/19 13:37:23;;;;;;;14.77;10.00;;;;;;;18.80;14.62;102502.84;5369158;32;34949;-72
2022/03/19 13:40:29;;;;;;;12.45;8.38;;;;;;;21.58;12.27;102492.81;5370902;32;34992;-72
2022/03/19 13:43:37;;;;;;;14.87;8.57;;;;;;;23.22;10.82;102473.84;5336914;32;44320;-72
2022/03/19 13:46:40;;;;;;;14.43;9.33;;;;;;;20.15;12.83;102481.94;5363933;32;35424;-86
2022/03/19 13:49:55;;;;;;;13.93;8.70;;;;;;;16.99;15.58;102490.75;5362235;32;33957;-88
2022/03/19 13:52:59;;;;;;;16.17;8.83;;;;;;;14.90;16.74;102508.06;5362531;32;43384;-72
2022/03/19 13:56:04;;;;;;;13.87;8.43;;;;;;;14.88;17.16;102494.00;5367433;32;35048;-87
2022/03/19 13:59:07;;;;;;;19.77;8.73;;;;;;;14.96;16.91;102499.09;5365033;32;34624;-70
2022/03/19 14:02:09;;;;;;;15.98;8.38;;;;;;;15.48;16.22;102491.63;5382693;32;34567;-87
2022/03/19 14:05:12;;;;;;;14.55;7.60;;;;;;;15.14;16.74;102479.25;5355180;32;34679;-71
2022/03/19 14:08:16;;;;;;;12.60;7.13;;;;;;;13.27;17.89;102506.03;5375929;32;34247;-89
2022/03/19 14:11:18;;;;;;;17.97;7.57;;;;;;;14.99;16.33;102496.34;5346028;32;34796;-88
2022/03/19 14:14:20;;;;;;;14.17;7.07;;;;;;;14.81;15.94;102500.34;5353447;32;35561;-87
2022/03/19 14:17:23;;;;;;;13.20;7.53;;;;;;;14.81;15.92;102486.19;5375403;32;35128;-80
2022/03/19 14:20:25;;;;;;;13.67;7.30;;;;;;;14.60;16.13;102498.16;5364102;32;33185;-89
2022/03/19 14:23:34;;;;;;;13.53;7.20;;;;;;;14.96;15.71;102487.63;5364134;32;44383;-70